Terminal Aerodrome Forecast
Issued by NWS

Home | Current Version | Previous Version | Text Only | Print | Product List | Glossary On
Versions: 1 2 3 4 5 6 7 8 9 10 11 12
667
FTUS43 KILX 071744
TAFCMI
TAF
KCMI 071744Z 0718/0818 23017G26KT P6SM SCT110 BKN200
     FM080000 25014G22KT P6SM SCT040 BKN120
     FM080300 27010KT P6SM SCT025 BKN045
     FM081000 28013KT P6SM VCSH OVC020
     FM081500 29015G24KT 4SM -SN BR OVC015=

USA.gov is the U.S. government's official web portal to all federal, state and local government web resources and services.